sensor_id;sensor_type;location;lat;lon;timestamp;temperature;humidity
21439;DHT22;10880;50.302;18.736;2022-12-18T00:03:50;2.50;59.90
21439;DHT22;10880;50.302;18.736;2022-12-18T00:06:17;2.50;59.80
21439;DHT22;10880;50.302;18.736;2022-12-18T00:08:44;2.50;59.70
21439;DHT22;10880;50.302;18.736;2022-12-18T00:11:16;2.50;59.40
21439;DHT22;10880;50.302;18.736;2022-12-18T00:13:44;2.60;59.90
21439;DHT22;10880;50.302;18.736;2022-12-18T00:16:13;2.60;59.90
21439;DHT22;10880;50.302;18.736;2022-12-18T00:18:41;2.60;59.80
21439;DHT22;10880;50.302;18.736;2022-12-18T00:21:10;2.60;59.40
21439;DHT22;10880;50.302;18.736;2022-12-18T00:23:38;2.60;59.40
21439;DHT22;10880;50.302;18.736;2022-12-18T00:26:08;2.60;59.40
21439;DHT22;10880;50.302;18.736;2022-12-18T00:28:36;2.60;59.40
21439;DHT22;10880;50.302;18.736;2022-12-18T00:31:07;2.60;59.40
21439;DHT22;10880;50.302;18.736;2022-12-18T00:33:34;2.60;59.80
21439;DHT22;10880;50.302;18.736;2022-12-18T00:36:06;2.70;59.70
21439;DHT22;10880;50.302;18.736;2022-12-18T00:38:33;2.70;59.80
21439;DHT22;10880;50.302;18.736;2022-12-18T00:41:00;2.70;59.80
21439;DHT22;10880;50.302;18.736;2022-12-18T00:43:26;2.70;59.60
21439;DHT22;10880;50.302;18.736;2022-12-18T00:45:53;2.70;59.30
21439;DHT22;10880;50.302;18.736;2022-12-18T00:48:20;2.80;59.40
21439;DHT22;10880;50.302;18.736;2022-12-18T00:50:49;2.80;59.30
21439;DHT22;10880;50.302;18.736;2022-12-18T00:53:15;2.80;59.70
21439;DHT22;10880;50.302;18.736;2022-12-18T00:55:42;2.80;59.30
21439;DHT22;10880;50.302;18.736;2022-12-18T00:58:10;2.90;59.40
21439;DHT22;10880;50.302;18.736;2022-12-18T01:00:37;2.80;59.80
21439;DHT22;10880;50.302;18.736;2022-12-18T01:03:04;2.80;59.50
21439;DHT22;10880;50.302;18.736;2022-12-18T01:05:31;2.90;59.80
21439;DHT22;10880;50.302;18.736;2022-12-18T01:07:58;2.90;59.80
21439;DHT22;10880;50.302;18.736;2022-12-18T01:10:25;2.90;59.40
21439;DHT22;10880;50.302;18.736;2022-12-18T01:12:52;2.90;59.30
21439;DHT22;10880;50.302;18.736;2022-12-18T01:15:20;2.90;59.30
21439;DHT22;10880;50.302;18.736;2022-12-18T01:20:13;2.90;59.20
21439;DHT22;10880;50.302;18.736;2022-12-18T01:22:40;2.90;59.40
21439;DHT22;10880;50.302;18.736;2022-12-18T01:25:07;2.90;59.50
21439;DHT22;10880;50.302;18.736;2022-12-18T01:27:34;3.00;59.50
21439;DHT22;10880;50.302;18.736;2022-12-18T01:30:04;3.00;59.40
21439;DHT22;10880;50.302;18.736;2022-12-18T01:32:31;3.00;59.60
21439;DHT22;10880;50.302;18.736;2022-12-18T01:34:58;3.00;59.20
21439;DHT22;10880;50.302;18.736;2022-12-18T01:37:27;3.00;59.40
21439;DHT22;10880;50.302;18.736;2022-12-18T01:39:53;3.10;59.30
21439;DHT22;10880;50.302;18.736;2022-12-18T01:42:21;3.10;59.60
21439;DHT22;10880;50.302;18.736;2022-12-18T01:47:47;3.10;59.20
21439;DHT22;10880;50.302;18.736;2022-12-18T01:50:38;3.10;59.80
21439;DHT22;10880;50.302;18.736;2022-12-18T01:55:40;3.10;59.40
21439;DHT22;10880;50.302;18.736;2022-12-18T01:58:09;3.10;59.70
21439;DHT22;10880;50.302;18.736;2022-12-18T02:00:36;3.10;59.40
21439;DHT22;10880;50.302;18.736;2022-12-18T02:03:03;3.10;59.30
21439;DHT22;10880;50.302;18.736;2022-12-18T02:08:33;3.20;59.20
21439;DHT22;10880;50.302;18.736;2022-12-18T02:11:07;3.20;59.00
21439;DHT22;10880;50.302;18.736;2022-12-18T02:13:53;3.20;59.50
21439;DHT22;10880;50.302;18.736;2022-12-18T02:16:49;3.10;59.10
21439;DHT22;10880;50.302;18.736;2022-12-18T02:27:30;3.10;58.90
21439;DHT22;10880;50.302;18.736;2022-12-18T02:30:00;3.10;58.90
21439;DHT22;10880;50.302;18.736;2022-12-18T02:32:56;3.10;58.90
21439;DHT22;10880;50.302;18.736;2022-12-18T02:35:28;3.20;59.30
21439;DHT22;10880;50.302;18.736;2022-12-18T02:37:59;3.10;58.90
21439;DHT22;10880;50.302;18.736;2022-12-18T02:40:30;3.10;59.40
21439;DHT22;10880;50.302;18.736;2022-12-18T02:43:10;3.10;59.30
21439;DHT22;10880;50.302;18.736;2022-12-18T02:45:57;3.10;58.80
21439;DHT22;10880;50.302;18.736;2022-12-18T02:48:32;3.10;58.90
21439;DHT22;10880;50.302;18.736;2022-12-18T02:51:20;3.10;59.40
21439;DHT22;10880;50.302;18.736;2022-12-18T02:53:58;3.10;59.30
21439;DHT22;10880;50.302;18.736;2022-12-18T02:56:38;3.10;59.40
21439;DHT22;10880;50.302;18.736;2022-12-18T02:59:15;3.10;58.80
21439;DHT22;10880;50.302;18.736;2022-12-18T03:04:53;3.10;58.90
21439;DHT22;10880;50.302;18.736;2022-12-18T03:07:37;3.10;59.40
21439;DHT22;10880;50.302;18.736;2022-12-18T03:10:12;3.10;59.40
21439;DHT22;10880;50.302;18.736;2022-12-18T03:13:08;3.10;58.80
21439;DHT22;10880;50.302;18.736;2022-12-18T03:15:47;3.10;59.30
21439;DHT22;10880;50.302;18.736;2022-12-18T03:18:30;3.10;59.40
21439;DHT22;10880;50.302;18.736;2022-12-18T03:21:00;3.10;58.80
21439;DHT22;10880;50.302;18.736;2022-12-18T03:23:34;3.10;59.30
21439;DHT22;10880;50.302;18.736;2022-12-18T03:26:07;3.10;59.30
21439;DHT22;10880;50.302;18.736;2022-12-18T03:28:42;3.00;59.20
21439;DHT22;10880;50.302;18.736;2022-12-18T03:31:12;3.10;59.30
21439;DHT22;10880;50.302;18.736;2022-12-18T03:33:58;3.10;59.30
21439;DHT22;10880;50.302;18.736;2022-12-18T03:36:34;3.00;59.30
21439;DHT22;10880;50.302;18.736;2022-12-18T03:39:02;3.10;58.80
21439;DHT22;10880;50.302;18.736;2022-12-18T03:41:44;3.00;59.20
21439;DHT22;10880;50.302;18.736;2022-12-18T03:44:29;3.10;59.30
21439;DHT22;10880;50.302;18.736;2022-12-18T03:47:08;3.10;59.40
21439;DHT22;10880;50.302;18.736;2022-12-18T03:52:35;3.10;59.30
21439;DHT22;10880;50.302;18.736;2022-12-18T03:55:04;3.00;59.20
21439;DHT22;10880;50.302;18.736;2022-12-18T03:57:32;3.10;58.80
21439;DHT22;10880;50.302;18.736;2022-12-18T04:00:04;3.00;59.00
21439;DHT22;10880;50.302;18.736;2022-12-18T04:02:44;3.10;59.30
21439;DHT22;10880;50.302;18.736;2022-12-18T04:05:16;3.10;59.30
21439;DHT22;10880;50.302;18.736;2022-12-18T04:07:45;3.00;58.80
21439;DHT22;10880;50.302;18.736;2022-12-18T04:10:16;3.10;59.20
21439;DHT22;10880;50.302;18.736;2022-12-18T04:12:43;3.00;59.10
21439;DHT22;10880;50.302;18.736;2022-12-18T04:15:12;3.00;58.90
21439;DHT22;10880;50.302;18.736;2022-12-18T04:17:48;3.00;58.80
21439;DHT22;10880;50.302;18.736;2022-12-18T04:20:17;3.00;58.80
21439;DHT22;10880;50.302;18.736;2022-12-18T04:22:45;3.10;59.00
21439;DHT22;10880;50.302;18.736;2022-12-18T04:25:12;3.10;59.00
21439;DHT22;10880;50.302;18.736;2022-12-18T04:27:43;3.00;59.00
21439;DHT22;10880;50.302;18.736;2022-12-18T04:30:11;3.00;58.80
21439;DHT22;10880;50.302;18.736;2022-12-18T04:32:38;3.10;59.00
21439;DHT22;10880;50.302;18.736;2022-12-18T04:35:04;3.00;58.90
21439;DHT22;10880;50.302;18.736;2022-12-18T04:37:34;3.00;59.00
21439;DHT22;10880;50.302;18.736;2022-12-18T04:42:36;3.10;58.80
21439;DHT22;10880;50.302;18.736;2022-12-18T04:45:03;3.00;58.70
21439;DHT22;10880;50.302;18.736;2022-12-18T04:47:30;3.00;58.60
21439;DHT22;10880;50.302;18.736;2022-12-18T04:49:57;3.00;58.80
21439;DHT22;10880;50.302;18.736;2022-12-18T04:52:23;3.00;58.70
21439;DHT22;10880;50.302;18.736;2022-12-18T04:54:49;3.00;58.70
21439;DHT22;10880;50.302;18.736;2022-12-18T04:57:16;3.00;58.70
21439;DHT22;10880;50.302;18.736;2022-12-18T04:59:44;3.00;58.70
21439;DHT22;10880;50.302;18.736;2022-12-18T05:02:11;3.00;58.80
21439;DHT22;10880;50.302;18.736;2022-12-18T05:04:37;3.00;58.70
21439;DHT22;10880;50.302;18.736;2022-12-18T05:07:03;3.00;58.80
21439;DHT22;10880;50.302;18.736;2022-12-18T05:09:30;3.00;58.80
21439;DHT22;10880;50.302;18.736;2022-12-18T05:11:56;3.00;58.80
21439;DHT22;10880;50.302;18.736;2022-12-18T05:14:23;3.00;58.70
21439;DHT22;10880;50.302;18.736;2022-12-18T05:16:49;3.00;58.80
21439;DHT22;10880;50.302;18.736;2022-12-18T05:19:16;3.00;58.70
21439;DHT22;10880;50.302;18.736;2022-12-18T05:21:42;3.00;58.80
21439;DHT22;10880;50.302;18.736;2022-12-18T05:24:08;3.00;58.60
21439;DHT22;10880;50.302;18.736;2022-12-18T05:26:35;3.00;58.70
21439;DHT22;10880;50.302;18.736;2022-12-18T05:29:02;2.90;58.50
21439;DHT22;10880;50.302;18.736;2022-12-18T05:31:28;2.90;58.50
21439;DHT22;10880;50.302;18.736;2022-12-18T05:33:54;2.90;58.50
21439;DHT22;10880;50.302;18.736;2022-12-18T05:36:21;2.90;58.50
21439;DHT22;10880;50.302;18.736;2022-12-18T05:38:48;2.90;58.70
21439;DHT22;10880;50.302;18.736;2022-12-18T05:41:15;2.90;59.10
21439;DHT22;10880;50.302;18.736;2022-12-18T05:43:41;2.90;58.70
21439;DHT22;10880;50.302;18.736;2022-12-18T05:46:13;2.80;58.50
21439;DHT22;10880;50.302;18.736;2022-12-18T05:48:40;2.80;59.00
21439;DHT22;10880;50.302;18.736;2022-12-18T05:51:12;2.80;58.80
21439;DHT22;10880;50.302;18.736;2022-12-18T05:53:38;2.80;59.00
21439;DHT22;10880;50.302;18.736;2022-12-18T05:56:07;2.80;58.70
21439;DHT22;10880;50.302;18.736;2022-12-18T05:58:34;2.80;59.20
21439;DHT22;10880;50.302;18.736;2022-12-18T06:01:19;2.80;58.80
21439;DHT22;10880;50.302;18.736;2022-12-18T06:03:46;2.80;59.30
21439;DHT22;10880;50.302;18.736;2022-12-18T06:06:18;2.80;59.00
21439;DHT22;10880;50.302;18.736;2022-12-18T06:11:12;2.90;58.90
21439;DHT22;10880;50.302;18.736;2022-12-18T06:13:39;2.90;58.80
21439;DHT22;10880;50.302;18.736;2022-12-18T06:16:06;2.80;58.70
21439;DHT22;10880;50.302;18.736;2022-12-18T06:18:32;2.80;59.00
21439;DHT22;10880;50.302;18.736;2022-12-18T06:20:59;2.80;58.80
21439;DHT22;10880;50.302;18.736;2022-12-18T06:23:26;2.80;59.10
21439;DHT22;10880;50.302;18.736;2022-12-18T06:25:53;2.80;58.90
21439;DHT22;10880;50.302;18.736;2022-12-18T06:28:19;2.80;58.80
21439;DHT22;10880;50.302;18.736;2022-12-18T06:30:47;2.80;58.80
21439;DHT22;10880;50.302;18.736;2022-12-18T06:33:15;2.80;59.20
21439;DHT22;10880;50.302;18.736;2022-12-18T06:35:41;2.90;59.40
21439;DHT22;10880;50.302;18.736;2022-12-18T06:38:08;2.90;58.90
21439;DHT22;10880;50.302;18.736;2022-12-18T06:40:37;2.90;59.10
21439;DHT22;10880;50.302;18.736;2022-12-18T06:43:04;2.90;59.30
21439;DHT22;10880;50.302;18.736;2022-12-18T06:45:30;2.90;58.80
21439;DHT22;10880;50.302;18.736;2022-12-18T06:47:57;2.90;58.90
21439;DHT22;10880;50.302;18.736;2022-12-18T06:50:23;2.90;58.60
21439;DHT22;10880;50.302;18.736;2022-12-18T06:52:50;2.80;58.60
21439;DHT22;10880;50.302;18.736;2022-12-18T06:55:16;2.80;58.60
21439;DHT22;10880;50.302;18.736;2022-12-18T06:57:42;3.20;58.80
21439;DHT22;10880;50.302;18.736;2022-12-18T07:00:10;2.80;58.60
21439;DHT22;10880;50.302;18.736;2022-12-18T07:02:37;2.80;59.10
21439;DHT22;10880;50.302;18.736;2022-12-18T07:05:04;2.80;58.60
21439;DHT22;10880;50.302;18.736;2022-12-18T07:07:30;2.80;58.60
21439;DHT22;10880;50.302;18.736;2022-12-18T07:09:57;2.80;58.70
21439;DHT22;10880;50.302;18.736;2022-12-18T07:12:23;2.80;58.70
21439;DHT22;10880;50.302;18.736;2022-12-18T07:14:49;2.80;58.70
21439;DHT22;10880;50.302;18.736;2022-12-18T07:17:16;2.80;58.60
21439;DHT22;10880;50.302;18.736;2022-12-18T07:19:42;2.80;58.60
21439;DHT22;10880;50.302;18.736;2022-12-18T07:22:09;2.80;58.50
21439;DHT22;10880;50.302;18.736;2022-12-18T07:24:35;2.70;58.60
21439;DHT22;10880;50.302;18.736;2022-12-18T07:27:02;2.70;58.50
21439;DHT22;10880;50.302;18.736;2022-12-18T07:29:28;2.70;58.70
21439;DHT22;10880;50.302;18.736;2022-12-18T07:31:55;2.70;58.70
21439;DHT22;10880;50.302;18.736;2022-12-18T07:34:21;2.70;58.60
21439;DHT22;10880;50.302;18.736;2022-12-18T07:36:48;2.70;58.70
21439;DHT22;10880;50.302;18.736;2022-12-18T07:39:14;2.70;58.80
21439;DHT22;10880;50.302;18.736;2022-12-18T07:41:41;2.70;58.90
21439;DHT22;10880;50.302;18.736;2022-12-18T07:44:36;2.70;59.30
21439;DHT22;10880;50.302;18.736;2022-12-18T07:47:03;2.80;58.90
21439;DHT22;10880;50.302;18.736;2022-12-18T07:49:29;2.80;59.00
21439;DHT22;10880;50.302;18.736;2022-12-18T07:51:57;2.80;58.90
21439;DHT22;10880;50.302;18.736;2022-12-18T07:54:24;2.80;58.80
21439;DHT22;10880;50.302;18.736;2022-12-18T07:56:51;2.90;59.00
21439;DHT22;10880;50.302;18.736;2022-12-18T07:59:18;2.90;59.30
21439;DHT22;10880;50.302;18.736;2022-12-18T08:01:45;2.90;59.10
21439;DHT22;10880;50.302;18.736;2022-12-18T08:04:11;2.90;58.80
21439;DHT22;10880;50.302;18.736;2022-12-18T08:06:38;2.90;58.80
21439;DHT22;10880;50.302;18.736;2022-12-18T08:09:04;2.90;58.70
21439;DHT22;10880;50.302;18.736;2022-12-18T08:11:31;2.90;59.00
21439;DHT22;10880;50.302;18.736;2022-12-18T08:13:58;2.90;58.80
21439;DHT22;10880;50.302;18.736;2022-12-18T08:16:24;2.90;58.80
21439;DHT22;10880;50.302;18.736;2022-12-18T08:18:52;3.00;59.20
21439;DHT22;10880;50.302;18.736;2022-12-18T08:21:28;2.90;58.70
21439;DHT22;10880;50.302;18.736;2022-12-18T08:23:56;3.00;58.60
21439;DHT22;10880;50.302;18.736;2022-12-18T08:26:24;3.00;58.50
21439;DHT22;10880;50.302;18.736;2022-12-18T08:28:51;3.00;58.90
21439;DHT22;10880;50.302;18.736;2022-12-18T08:31:19;3.00;58.90
21439;DHT22;10880;50.302;18.736;2022-12-18T08:33:48;3.00;58.80
21439;DHT22;10880;50.302;18.736;2022-12-18T08:36:15;2.90;58.40
21439;DHT22;10880;50.302;18.736;2022-12-18T08:38:42;3.00;58.50
21439;DHT22;10880;50.302;18.736;2022-12-18T08:41:13;3.00;58.40
21439;DHT22;10880;50.302;18.736;2022-12-18T08:43:40;3.00;58.90
21439;DHT22;10880;50.302;18.736;2022-12-18T08:46:27;3.00;58.90
21439;DHT22;10880;50.302;18.736;2022-12-18T08:48:54;3.00;58.90
21439;DHT22;10880;50.302;18.736;2022-12-18T08:51:22;3.00;58.60
21439;DHT22;10880;50.302;18.736;2022-12-18T08:53:49;2.90;58.30
21439;DHT22;10880;50.302;18.736;2022-12-18T08:56:15;3.00;58.50
21439;DHT22;10880;50.302;18.736;2022-12-18T08:58:43;2.90;58.30
21439;DHT22;10880;50.302;18.736;2022-12-18T09:01:11;2.90;58.30
21439;DHT22;10880;50.302;18.736;2022-12-18T09:03:38;3.00;58.80
21439;DHT22;10880;50.302;18.736;2022-12-18T09:06:06;2.90;58.30
21439;DHT22;10880;50.302;18.736;2022-12-18T09:08:32;3.00;58.80
21439;DHT22;10880;50.302;18.736;2022-12-18T09:10:58;2.90;58.30
21439;DHT22;10880;50.302;18.736;2022-12-18T09:15:53;3.00;58.30
21439;DHT22;10880;50.302;18.736;2022-12-18T09:18:22;3.00;58.40
21439;DHT22;10880;50.302;18.736;2022-12-18T09:20:49;3.00;58.80
21439;DHT22;10880;50.302;18.736;2022-12-18T09:23:17;3.00;58.60
21439;DHT22;10880;50.302;18.736;2022-12-18T09:25:44;3.10;58.50
21439;DHT22;10880;50.302;18.736;2022-12-18T09:28:19;3.00;58.30
21439;DHT22;10880;50.302;18.736;2022-12-18T09:30:48;3.00;58.30
21439;DHT22;10880;50.302;18.736;2022-12-18T09:33:15;3.10;58.70
21439;DHT22;10880;50.302;18.736;2022-12-18T09:35:43;3.10;58.50
21439;DHT22;10880;50.302;18.736;2022-12-18T09:38:16;3.10;57.90
21439;DHT22;10880;50.302;18.736;2022-12-18T09:40:51;3.10;58.30
21439;DHT22;10880;50.302;18.736;2022-12-18T09:43:22;3.10;58.30
21439;DHT22;10880;50.302;18.736;2022-12-18T09:45:55;3.00;58.10
21439;DHT22;10880;50.302;18.736;2022-12-18T09:48:32;3.00;58.20
21439;DHT22;10880;50.302;18.736;2022-12-18T09:51:15;3.10;58.30
21439;DHT22;10880;50.302;18.736;2022-12-18T09:53:45;3.10;58.30
21439;DHT22;10880;50.302;18.736;2022-12-18T09:56:17;3.00;58.30
21439;DHT22;10880;50.302;18.736;2022-12-18T09:59:00;3.10;58.30
21439;DHT22;10880;50.302;18.736;2022-12-18T10:01:28;3.10;58.40
21439;DHT22;10880;50.302;18.736;2022-12-18T10:03:55;3.10;58.40
21439;DHT22;10880;50.302;18.736;2022-12-18T10:09:12;3.20;58.50
21439;DHT22;10880;50.302;18.736;2022-12-18T10:17:38;3.20;58.90
21439;DHT22;10880;50.302;18.736;2022-12-18T10:20:35;3.20;58.30
21439;DHT22;10880;50.302;18.736;2022-12-18T10:26:07;3.30;57.70
21439;DHT22;10880;50.302;18.736;2022-12-18T10:28:39;3.20;57.60
21439;DHT22;10880;50.302;18.736;2022-12-18T10:31:17;3.30;58.20
21439;DHT22;10880;50.302;18.736;2022-12-18T10:33:44;3.30;58.20
21439;DHT22;10880;50.302;18.736;2022-12-18T10:36:11;3.20;57.40
21439;DHT22;10880;50.302;18.736;2022-12-18T10:38:37;3.30;57.90
21439;DHT22;10880;50.302;18.736;2022-12-18T10:41:25;3.30;57.60
21439;DHT22;10880;50.302;18.736;2022-12-18T10:46:38;3.40;57.80
21439;DHT22;10880;50.302;18.736;2022-12-18T10:49:04;3.40;57.70
21439;DHT22;10880;50.302;18.736;2022-12-18T10:51:33;3.40;58.00
21439;DHT22;10880;50.302;18.736;2022-12-18T10:56:34;3.60;57.80
21439;DHT22;10880;50.302;18.736;2022-12-18T10:59:06;3.60;57.80
21439;DHT22;10880;50.302;18.736;2022-12-18T11:04:21;3.60;58.00
21439;DHT22;10880;50.302;18.736;2022-12-18T11:07:06;3.70;58.20
21439;DHT22;10880;50.302;18.736;2022-12-18T11:09:35;3.70;58.00
21439;DHT22;10880;50.302;18.736;2022-12-18T11:12:05;3.70;57.80
21439;DHT22;10880;50.302;18.736;2022-12-18T11:14:50;3.70;57.50
21439;DHT22;10880;50.302;18.736;2022-12-18T11:17:20;3.70;57.40
21439;DHT22;10880;50.302;18.736;2022-12-18T11:19:58;3.70;57.40
21439;DHT22;10880;50.302;18.736;2022-12-18T11:25:05;3.70;57.50
21439;DHT22;10880;50.302;18.736;2022-12-18T11:27:32;3.70;57.40
21439;DHT22;10880;50.302;18.736;2022-12-18T11:30:30;3.70;57.30
21439;DHT22;10880;50.302;18.736;2022-12-18T11:33:21;3.70;57.50
21439;DHT22;10880;50.302;18.736;2022-12-18T11:35:54;3.70;57.50
21439;DHT22;10880;50.302;18.736;2022-12-18T11:38:28;3.80;57.60
21439;DHT22;10880;50.302;18.736;2022-12-18T11:41:04;3.80;57.50
21439;DHT22;10880;50.302;18.736;2022-12-18T11:43:43;3.80;57.00
21439;DHT22;10880;50.302;18.736;2022-12-18T11:46:23;3.80;56.90
21439;DHT22;10880;50.302;18.736;2022-12-18T11:48:56;3.80;57.30
21439;DHT22;10880;50.302;18.736;2022-12-18T11:51:41;3.80;57.10
21439;DHT22;10880;50.302;18.736;2022-12-18T11:54:15;3.80;57.70
21439;DHT22;10880;50.302;18.736;2022-12-18T12:01:52;3.80;57.00
21439;DHT22;10880;50.302;18.736;2022-12-18T12:12:39;3.70;56.70
21439;DHT22;10880;50.302;18.736;2022-12-18T12:15:34;3.70;57.00
21439;DHT22;10880;50.302;18.736;2022-12-18T12:23:36;3.80;57.20
21439;DHT22;10880;50.302;18.736;2022-12-18T12:26:23;3.80;57.10
21439;DHT22;10880;50.302;18.736;2022-12-18T12:29:01;3.80;57.10
21439;DHT22;10880;50.302;18.736;2022-12-18T12:34:22;3.80;57.10
21439;DHT22;10880;50.302;18.736;2022-12-18T12:39:35;3.80;57.10
21439;DHT22;10880;50.302;18.736;2022-12-18T12:45:16;3.80;57.10
21439;DHT22;10880;50.302;18.736;2022-12-18T12:47:45;3.80;56.90
21439;DHT22;10880;50.302;18.736;2022-12-18T12:50:16;3.80;56.70
21439;DHT22;10880;50.302;18.736;2022-12-18T12:52:46;3.70;56.30
21439;DHT22;10880;50.302;18.736;2022-12-18T12:55:32;3.70;56.30
21439;DHT22;10880;50.302;18.736;2022-12-18T13:03:45;3.70;56.30
21439;DHT22;10880;50.302;18.736;2022-12-18T13:09:01;3.70;56.80
21439;DHT22;10880;50.302;18.736;2022-12-18T13:11:43;3.70;56.80
21439;DHT22;10880;50.302;18.736;2022-12-18T13:14:35;3.70;56.80
21439;DHT22;10880;50.302;18.736;2022-12-18T13:22:43;3.70;56.60
21439;DHT22;10880;50.302;18.736;2022-12-18T13:25:33;3.70;56.80
21439;DHT22;10880;50.302;18.736;2022-12-18T13:35:42;3.60;56.30
21439;DHT22;10880;50.302;18.736;2022-12-18T13:46:05;3.50;56.10
21439;DHT22;10880;50.302;18.736;2022-12-18T13:48:34;3.50;56.60
21439;DHT22;10880;50.302;18.736;2022-12-18T13:53:34;3.40;56.10
21439;DHT22;10880;50.302;18.736;2022-12-18T13:56:02;3.40;56.50
21439;DHT22;10880;50.302;18.736;2022-12-18T13:58:29;3.40;56.40
21439;DHT22;10880;50.302;18.736;2022-12-18T14:03:27;3.30;55.90
21439;DHT22;10880;50.302;18.736;2022-12-18T14:06:01;3.30;56.40
21439;DHT22;10880;50.302;18.736;2022-12-18T14:08:35;3.20;56.00
21439;DHT22;10880;50.302;18.736;2022-12-18T14:11:04;3.20;56.40
21439;DHT22;10880;50.302;18.736;2022-12-18T14:13:36;3.20;56.40
21439;DHT22;10880;50.302;18.736;2022-12-18T14:16:05;3.10;56.30
21439;DHT22;10880;50.302;18.736;2022-12-18T14:21:22;3.00;56.30
21439;DHT22;10880;50.302;18.736;2022-12-18T14:24:03;3.00;56.10
21439;DHT22;10880;50.302;18.736;2022-12-18T14:26:31;2.90;55.50
21439;DHT22;10880;50.302;18.736;2022-12-18T14:31:45;2.70;55.60
21439;DHT22;10880;50.302;18.736;2022-12-18T14:34:16;2.60;55.20
21439;DHT22;10880;50.302;18.736;2022-12-18T14:36:52;2.60;55.70
21439;DHT22;10880;50.302;18.736;2022-12-18T14:39:18;2.50;55.60
21439;DHT22;10880;50.302;18.736;2022-12-18T14:41:45;2.40;55.30
21439;DHT22;10880;50.302;18.736;2022-12-18T14:44:14;2.30;55.70
21439;DHT22;10880;50.302;18.736;2022-12-18T14:46:43;2.30;55.20
21439;DHT22;10880;50.302;18.736;2022-12-18T14:49:32;2.20;55.60
21439;DHT22;10880;50.302;18.736;2022-12-18T14:52:02;2.10;55.60
21439;DHT22;10880;50.302;18.736;2022-12-18T14:54:30;2.00;55.50
21439;DHT22;10880;50.302;18.736;2022-12-18T14:57:16;1.90;55.50
21439;DHT22;10880;50.302;18.736;2022-12-18T14:59:45;1.90;55.00
21439;DHT22;10880;50.302;18.736;2022-12-18T15:02:24;1.70;55.00
21439;DHT22;10880;50.302;18.736;2022-12-18T15:07:49;1.60;55.50
21439;DHT22;10880;50.302;18.736;2022-12-18T15:10:23;1.60;55.30
21439;DHT22;10880;50.302;18.736;2022-12-18T15:18:13;1.30;54.90
21439;DHT22;10880;50.302;18.736;2022-12-18T15:23:22;1.10;55.20
21439;DHT22;10880;50.302;18.736;2022-12-18T15:25:56;1.00;54.80
21439;DHT22;10880;50.302;18.736;2022-12-18T15:36:19;0.80;55.10
21439;DHT22;10880;50.302;18.736;2022-12-18T15:38:50;0.70;55.00
21439;DHT22;10880;50.302;18.736;2022-12-18T15:41:19;0.60;55.10
21439;DHT22;10880;50.302;18.736;2022-12-18T15:43:50;0.50;54.50
21439;DHT22;10880;50.302;18.736;2022-12-18T15:46:19;0.50;55.00
21439;DHT22;10880;50.302;18.736;2022-12-18T15:48:51;0.40;54.90
21439;DHT22;10880;50.302;18.736;2022-12-18T15:51:29;0.30;54.80
21439;DHT22;10880;50.302;18.736;2022-12-18T15:53:59;0.90;55.30
21439;DHT22;10880;50.302;18.736;2022-12-18T15:56:27;0.20;54.40
21439;DHT22;10880;50.302;18.736;2022-12-18T15:59:14;0.10;54.30
21439;DHT22;10880;50.302;18.736;2022-12-18T16:01:43;0.00;54.70
21439;DHT22;10880;50.302;18.736;2022-12-18T16:04:15;-0.10;54.70
21439;DHT22;10880;50.302;18.736;2022-12-18T16:06:42;-0.10;54.80
21439;DHT22;10880;50.302;18.736;2022-12-18T16:09:09;-0.20;54.70
21439;DHT22;10880;50.302;18.736;2022-12-18T16:11:37;-0.20;54.60
21439;DHT22;10880;50.302;18.736;2022-12-18T16:19:10;-0.40;54.40
21439;DHT22;10880;50.302;18.736;2022-12-18T16:21:37;-0.50;54.40
21439;DHT22;10880;50.302;18.736;2022-12-18T16:24:03;-0.50;54.30
21439;DHT22;10880;50.302;18.736;2022-12-18T16:26:30;-0.50;54.30
21439;DHT22;10880;50.302;18.736;2022-12-18T16:28:56;-0.60;54.20
21439;DHT22;10880;50.302;18.736;2022-12-18T16:31:24;-0.70;54.30
21439;DHT22;10880;50.302;18.736;2022-12-18T16:34:20;-0.70;54.30
21439;DHT22;10880;50.302;18.736;2022-12-18T16:36:53;-0.80;54.60
21439;DHT22;10880;50.302;18.736;2022-12-18T16:41:48;-0.90;53.90
21439;DHT22;10880;50.302;18.736;2022-12-18T16:44:15;-1.00;53.90
21439;DHT22;10880;50.302;18.736;2022-12-18T16:46:42;-1.00;53.80
21439;DHT22;10880;50.302;18.736;2022-12-18T16:49:12;-1.10;53.80
21439;DHT22;10880;50.302;18.736;2022-12-18T16:51:39;-1.20;53.80
21439;DHT22;10880;50.302;18.736;2022-12-18T16:54:06;-1.20;53.80
21439;DHT22;10880;50.302;18.736;2022-12-18T16:56:33;-1.30;53.70
21439;DHT22;10880;50.302;18.736;2022-12-18T16:59:01;-1.30;53.90
21439;DHT22;10880;50.302;18.736;2022-12-18T17:01:29;-1.40;53.80
21439;DHT22;10880;50.302;18.736;2022-12-18T17:04:02;-1.40;53.80
21439;DHT22;10880;50.302;18.736;2022-12-18T17:06:31;-0.80;54.70
21439;DHT22;10880;50.302;18.736;2022-12-18T17:09:04;-1.50;54.20
21439;DHT22;10880;50.302;18.736;2022-12-18T17:11:32;-1.50;53.70
21439;DHT22;10880;50.302;18.736;2022-12-18T17:14:04;-1.60;53.70
21439;DHT22;10880;50.302;18.736;2022-12-18T17:16:31;-1.60;54.30
21439;DHT22;10880;50.302;18.736;2022-12-18T17:18:57;-1.70;53.70
21439;DHT22;10880;50.302;18.736;2022-12-18T17:21:24;-1.70;53.70
21439;DHT22;10880;50.302;18.736;2022-12-18T17:23:51;-1.80;53.70
21439;DHT22;10880;50.302;18.736;2022-12-18T17:26:17;-1.80;53.70
21439;DHT22;10880;50.302;18.736;2022-12-18T17:28:44;-1.90;53.60
21439;DHT22;10880;50.302;18.736;2022-12-18T17:31:18;-1.90;53.60
21439;DHT22;10880;50.302;18.736;2022-12-18T17:33:45;-1.90;54.10
21439;DHT22;10880;50.302;18.736;2022-12-18T17:36:12;-2.00;53.50
21439;DHT22;10880;50.302;18.736;2022-12-18T17:38:43;-1.70;54.40
21439;DHT22;10880;50.302;18.736;2022-12-18T17:41:15;-2.00;53.70
21439;DHT22;10880;50.302;18.736;2022-12-18T17:43:41;-2.10;53.70
21439;DHT22;10880;50.302;18.736;2022-12-18T17:46:13;-1.90;54.90
21439;DHT22;10880;50.302;18.736;2022-12-18T17:48:40;-2.20;54.20
21439;DHT22;10880;50.302;18.736;2022-12-18T17:51:08;-2.30;53.90
21439;DHT22;10880;50.302;18.736;2022-12-18T17:53:36;-2.20;54.20
21439;DHT22;10880;50.302;18.736;2022-12-18T17:56:04;-2.30;54.00
21439;DHT22;10880;50.302;18.736;2022-12-18T17:58:33;-2.30;53.40
21439;DHT22;10880;50.302;18.736;2022-12-18T18:01:01;-2.30;53.50
21439;DHT22;10880;50.302;18.736;2022-12-18T18:03:27;-2.40;53.40
21439;DHT22;10880;50.302;18.736;2022-12-18T18:05:55;-2.40;53.40
21439;DHT22;10880;50.302;18.736;2022-12-18T18:08:24;-2.40;53.30
21439;DHT22;10880;50.302;18.736;2022-12-18T18:10:51;-2.40;53.30
21439;DHT22;10880;50.302;18.736;2022-12-18T18:13:24;-2.50;53.20
21439;DHT22;10880;50.302;18.736;2022-12-18T18:16:13;-2.50;53.20
21439;DHT22;10880;50.302;18.736;2022-12-18T18:18:44;-2.60;53.10
21439;DHT22;10880;50.302;18.736;2022-12-18T18:24:05;-2.70;53.00